createdAt,value
2022-07-31T00:00:18.090Z,14.90
2022-07-31T00:02:45.356Z,14.90
2022-07-31T00:05:12.473Z,14.80
2022-07-31T00:07:39.567Z,14.70
2022-07-31T00:10:07.093Z,14.70
2022-07-31T00:12:35.118Z,14.60
2022-07-31T00:15:04.249Z,14.60
2022-07-31T00:17:33.381Z,14.60
2022-07-31T00:20:00.360Z,14.50
2022-07-31T00:22:27.442Z,14.50
2022-07-31T00:24:54.492Z,14.50
2022-07-31T00:27:21.748Z,14.50
2022-07-31T00:29:48.734Z,14.50
2022-07-31T00:32:15.839Z,14.50
2022-07-31T00:34:42.921Z,14.60
2022-07-31T00:37:10.276Z,14.60
2022-07-31T00:39:40.129Z,14.50
2022-07-31T00:42:17.837Z,14.60
2022-07-31T00:44:47.772Z,14.60
2022-07-31T00:47:15.830Z,14.60
2022-07-31T00:49:43.440Z,14.50
2022-07-31T00:52:10.437Z,14.50
2022-07-31T00:54:37.890Z,14.40
2022-07-31T00:57:05.647Z,14.40
2022-07-31T00:59:33.511Z,14.40
2022-07-31T01:02:00.982Z,14.40
2022-07-31T01:04:28.149Z,14.40
2022-07-31T01:06:59.547Z,14.50
2022-07-31T01:09:27.052Z,14.40
2022-07-31T01:12:05.400Z,14.40
2022-07-31T01:14:37.073Z,14.30
2022-07-31T01:17:07.866Z,14.10
2022-07-31T01:19:42.851Z,14.10
2022-07-31T01:22:33.532Z,14.00
2022-07-31T01:25:04.579Z,14.00
2022-07-31T01:27:49.330Z,14.10
2022-07-31T01:30:17.880Z,14.00
2022-07-31T01:32:50.677Z,14.00
2022-07-31T01:35:32.571Z,13.90
2022-07-31T01:38:07.551Z,13.90
2022-07-31T01:40:41.439Z,13.80
2022-07-31T01:43:14.934Z,13.90
2022-07-31T01:45:44.015Z,13.90
2022-07-31T01:48:14.664Z,14.00
2022-07-31T01:50:46.555Z,13.90
2022-07-31T01:53:16.292Z,13.80
2022-07-31T01:56:02.710Z,13.90
2022-07-31T01:58:35.082Z,13.80
2022-07-31T02:01:04.055Z,13.80
2022-07-31T02:03:43.505Z,13.70
2022-07-31T02:06:18.126Z,13.70
2022-07-31T02:08:53.523Z,13.70
2022-07-31T02:11:21.444Z,13.60
2022-07-31T02:13:49.586Z,13.60
2022-07-31T02:16:18.358Z,13.60
2022-07-31T02:18:48.324Z,13.50
2022-07-31T02:21:16.284Z,13.50
2022-07-31T02:23:43.395Z,13.40
2022-07-31T02:26:11.507Z,13.40
2022-07-31T02:28:42.245Z,13.40
2022-07-31T02:31:13.257Z,13.40
2022-07-31T02:33:43.398Z,13.50
2022-07-31T02:36:13.279Z,13.60
2022-07-31T02:38:42.740Z,13.60
2022-07-31T02:41:11.481Z,13.60
2022-07-31T02:43:40.075Z,13.50
2022-07-31T02:46:08.634Z,13.40
2022-07-31T02:48:37.430Z,13.30
2022-07-31T02:51:05.009Z,13.30
2022-07-31T02:53:33.697Z,13.30
2022-07-31T02:56:02.337Z,13.20
2022-07-31T02:58:29.480Z,13.20
2022-07-31T03:01:05.307Z,13.30
2022-07-31T03:03:32.738Z,13.20
2022-07-31T03:06:00.141Z,13.20
2022-07-31T03:08:30.177Z,13.20
2022-07-31T03:10:58.331Z,13.10
2022-07-31T03:13:28.037Z,13.10
2022-07-31T03:15:56.050Z,13.00
2022-07-31T03:18:24.369Z,13.00
2022-07-31T03:20:52.169Z,13.10
2022-07-31T03:23:21.837Z,13.00
2022-07-31T03:25:50.424Z,13.10
2022-07-31T03:28:20.802Z,13.10
2022-07-31T03:30:56.170Z,13.20
2022-07-31T03:33:23.862Z,13.20
2022-07-31T03:35:51.480Z,13.20
2022-07-31T03:38:39.632Z,13.30
2022-07-31T03:41:05.696Z,13.40
2022-07-31T03:43:46.954Z,13.40
2022-07-31T03:46:17.351Z,13.40
2022-07-31T03:48:45.302Z,13.60
2022-07-31T03:51:13.489Z,13.70
2022-07-31T03:53:41.523Z,13.80
2022-07-31T03:56:09.857Z,13.90
2022-07-31T03:58:38.654Z,13.90
2022-07-31T04:01:10.497Z,14.00
2022-07-31T04:03:39.486Z,14.00
2022-07-31T04:06:06.877Z,14.00
2022-07-31T04:08:34.448Z,14.10
2022-07-31T04:11:01.526Z,14.10
2022-07-31T04:13:28.622Z,14.10
2022-07-31T04:15:55.735Z,14.00
2022-07-31T04:18:22.753Z,14.00
2022-07-31T04:20:50.371Z,14.00
2022-07-31T04:23:17.426Z,14.10
2022-07-31T04:25:44.505Z,14.10
2022-07-31T04:28:11.660Z,14.10
2022-07-31T04:30:39.328Z,14.20
2022-07-31T04:33:06.474Z,14.20
2022-07-31T04:35:33.599Z,14.30
2022-07-31T04:38:01.084Z,14.40
2022-07-31T04:40:28.942Z,14.50
2022-07-31T04:42:55.944Z,14.50
2022-07-31T04:45:22.928Z,14.60
2022-07-31T04:47:49.969Z,14.60
2022-07-31T04:50:17.196Z,14.50
2022-07-31T04:52:44.284Z,14.60
2022-07-31T04:55:11.460Z,14.60
2022-07-31T04:57:38.778Z,14.80
2022-07-31T05:00:10.550Z,14.80
2022-07-31T05:02:38.133Z,14.90
2022-07-31T05:05:05.512Z,15.00
2022-07-31T05:07:32.793Z,15.10
2022-07-31T05:09:59.787Z,15.20
2022-07-31T05:12:27.121Z,15.20
2022-07-31T05:14:54.125Z,15.20
2022-07-31T05:17:21.250Z,15.30
2022-07-31T05:19:48.245Z,15.30
2022-07-31T05:22:15.409Z,15.50
2022-07-31T05:24:43.188Z,15.70
2022-07-31T05:27:10.332Z,15.80
2022-07-31T05:29:37.296Z,15.80
2022-07-31T05:32:05.216Z,15.90
2022-07-31T05:34:32.178Z,16.00
2022-07-31T05:37:03.637Z,16.10
2022-07-31T05:39:31.487Z,16.20
2022-07-31T05:41:58.599Z,16.40
2022-07-31T05:44:25.720Z,16.50
2022-07-31T05:49:19.621Z,16.90
2022-07-31T05:51:47.114Z,17.60
2022-07-31T05:54:14.515Z,19.00
2022-07-31T05:56:41.603Z,20.90
2022-07-31T05:59:09.877Z,21.10
2022-07-31T06:01:37.599Z,21.10
2022-07-31T06:04:04.648Z,21.30
2022-07-31T06:06:31.773Z,21.10
2022-07-31T06:09:04.103Z,21.40
2022-07-31T06:11:32.269Z,21.70
2022-07-31T06:13:59.217Z,21.70
2022-07-31T06:16:26.873Z,21.50
2022-07-31T06:18:54.388Z,21.30
2022-07-31T06:23:47.099Z,22.40
2022-07-31T06:26:14.346Z,24.00
2022-07-31T06:28:48.481Z,27.10
2022-07-31T06:31:19.589Z,29.80
2022-07-31T06:33:48.008Z,31.80
2022-07-31T06:36:16.228Z,30.90
2022-07-31T06:38:43.261Z,29.60
2022-07-31T06:41:10.401Z,28.80
2022-07-31T06:43:37.462Z,30.10
2022-07-31T06:46:04.468Z,31.80
2022-07-31T06:48:31.551Z,33.60
2022-07-31T06:53:45.525Z,35.60
2022-07-31T06:56:12.583Z,36.20
2022-07-31T06:58:39.521Z,36.50
2022-07-31T07:01:06.731Z,36.60
2022-07-31T07:03:34.020Z,36.80
2022-07-31T07:06:01.254Z,37.30
2022-07-31T07:08:28.979Z,37.50
2022-07-31T07:10:56.433Z,37.70
2022-07-31T07:13:23.580Z,37.90
2022-07-31T07:15:50.983Z,38.30
2022-07-31T07:18:18.463Z,39.00
2022-07-31T07:20:45.555Z,38.90
2022-07-31T07:23:12.613Z,38.90
2022-07-31T07:25:40.942Z,39.00
2022-07-31T07:28:12.143Z,38.90
2022-07-31T07:30:42.375Z,38.80
2022-07-31T07:33:09.457Z,38.80
2022-07-31T07:35:36.932Z,38.80
2022-07-31T07:38:03.892Z,38.90
2022-07-31T07:40:31.380Z,38.60
2022-07-31T07:43:02.960Z,38.10
2022-07-31T07:45:30.748Z,37.60
2022-07-31T07:48:07.090Z,37.50
2022-07-31T07:50:34.935Z,37.70
2022-07-31T07:53:02.086Z,37.90
2022-07-31T07:55:37.538Z,37.10
2022-07-31T07:58:08.863Z,35.90
2022-07-31T08:00:39.292Z,34.80
2022-07-31T08:03:50.311Z,34.20
2022-07-31T08:05:55.838Z,34.20
2022-07-31T08:08:22.927Z,34.60
2022-07-31T08:10:50.180Z,34.80
2022-07-31T08:13:17.217Z,34.50
2022-07-31T08:15:45.681Z,33.80
2022-07-31T08:18:12.668Z,33.10
2022-07-31T08:20:41.306Z,32.50
2022-07-31T08:23:08.282Z,32.60
2022-07-31T08:25:35.461Z,32.80
2022-07-31T08:28:02.403Z,33.00
2022-07-31T08:30:31.092Z,32.90
2022-07-31T08:32:58.321Z,32.60
2022-07-31T08:35:26.262Z,32.20
2022-07-31T08:38:03.334Z,31.60
2022-07-31T08:40:31.440Z,31.10
2022-07-31T08:43:01.051Z,30.50
2022-07-31T08:45:29.184Z,30.00
2022-07-31T08:47:59.295Z,29.50
2022-07-31T08:50:28.763Z,29.20
2022-07-31T08:52:57.674Z,28.90
2022-07-31T08:55:56.902Z,28.80
2022-07-31T08:58:12.248Z,28.80
2022-07-31T09:00:43.220Z,28.80
2022-07-31T09:03:10.770Z,28.80
2022-07-31T09:05:42.657Z,28.90
2022-07-31T09:08:14.741Z,29.20
2022-07-31T09:10:46.335Z,29.40
2022-07-31T09:13:18.689Z,29.40
2022-07-31T09:15:45.873Z,29.10
2022-07-31T09:18:22.056Z,28.80
2022-07-31T09:21:05.009Z,28.50
2022-07-31T09:23:33.080Z,28.10
2022-07-31T09:26:03.378Z,27.90
2022-07-31T09:28:41.972Z,27.70
2022-07-31T09:31:10.455Z,27.70
2022-07-31T09:33:45.180Z,27.80
2022-07-31T09:36:13.806Z,28.00
2022-07-31T09:38:43.183Z,28.30
2022-07-31T09:41:53.381Z,28.60
2022-07-31T09:44:10.506Z,29.00
2022-07-31T09:46:46.748Z,29.50
2022-07-31T09:49:14.321Z,29.70
2022-07-31T09:51:43.280Z,29.90
2022-07-31T09:54:26.501Z,30.00
2022-07-31T09:56:53.921Z,29.90
2022-07-31T09:59:21.021Z,29.80
2022-07-31T10:01:49.382Z,29.70
2022-07-31T10:04:21.568Z,29.80
2022-07-31T10:06:51.333Z,29.60
2022-07-31T10:09:22.039Z,29.60
2022-07-31T10:11:51.731Z,29.50
2022-07-31T10:14:28.438Z,29.40
2022-07-31T10:16:59.241Z,29.30
2022-07-31T10:19:32.139Z,29.40
2022-07-31T10:22:03.635Z,29.60
2022-07-31T10:24:34.256Z,29.60
2022-07-31T10:27:09.306Z,29.70
2022-07-31T10:29:39.514Z,29.70
2022-07-31T10:32:08.632Z,30.00
2022-07-31T10:34:37.146Z,30.30
2022-07-31T10:37:16.749Z,30.50
2022-07-31T10:39:55.156Z,30.60
2022-07-31T10:42:41.738Z,30.80
2022-07-31T10:45:11.497Z,31.20
2022-07-31T10:47:38.602Z,31.60
2022-07-31T10:50:06.775Z,31.80
2022-07-31T10:52:38.415Z,31.80
2022-07-31T10:55:19.430Z,31.60
2022-07-31T10:57:56.843Z,31.70
2022-07-31T11:00:29.667Z,32.10
2022-07-31T11:02:57.094Z,32.60
2022-07-31T11:05:27.473Z,32.80
2022-07-31T11:08:02.924Z,33.00
2022-07-31T11:10:30.861Z,32.90
2022-07-31T11:13:03.891Z,32.80
2022-07-31T11:15:31.741Z,33.00
2022-07-31T11:18:22.600Z,32.80
2022-07-31T11:20:47.871Z,32.90
2022-07-31T11:23:16.956Z,33.30
2022-07-31T11:25:47.036Z,33.70
2022-07-31T11:28:21.609Z,34.10
2022-07-31T11:30:49.022Z,34.20
2022-07-31T11:33:16.251Z,34.00
2022-07-31T11:35:43.351Z,33.90
2022-07-31T11:38:10.557Z,34.10
2022-07-31T11:40:38.677Z,34.50
2022-07-31T11:43:25.823Z,34.90
2022-07-31T11:45:55.162Z,34.90
2022-07-31T11:48:27.531Z,34.60
2022-07-31T11:50:54.870Z,34.10
2022-07-31T11:53:22.033Z,34.00
2022-07-31T11:55:51.889Z,33.90
2022-07-31T11:58:20.923Z,34.10
2022-07-31T12:01:01.785Z,34.40
2022-07-31T12:03:35.190Z,34.60
2022-07-31T12:06:03.721Z,34.30
2022-07-31T12:08:31.766Z,33.80
2022-07-31T12:11:00.920Z,33.60
2022-07-31T12:13:29.339Z,33.90
2022-07-31T12:16:02.104Z,33.90
2022-07-31T12:18:30.275Z,33.40
2022-07-31T12:21:00.514Z,32.80
2022-07-31T12:23:41.338Z,32.10
2022-07-31T12:26:12.335Z,31.60
2022-07-31T12:28:40.018Z,31.80
2022-07-31T12:31:06.992Z,31.80
2022-07-31T12:33:42.719Z,32.10
2022-07-31T12:36:15.369Z,32.70
2022-07-31T12:38:45.575Z,33.50
2022-07-31T12:41:15.378Z,34.00
2022-07-31T12:43:51.726Z,34.20
2022-07-31T12:46:21.745Z,34.00
2022-07-31T12:48:48.875Z,33.90
2022-07-31T12:51:17.844Z,34.20
2022-07-31T12:53:44.952Z,34.20
2022-07-31T12:56:12.460Z,34.20
2022-07-31T12:58:39.538Z,34.20
2022-07-31T13:01:08.892Z,34.00
2022-07-31T13:03:45.897Z,33.70
2022-07-31T13:06:14.432Z,33.30
2022-07-31T13:08:43.979Z,33.00
2022-07-31T13:11:11.439Z,32.90
2022-07-31T13:13:38.595Z,32.80
2022-07-31T13:16:05.815Z,32.80
2022-07-31T13:18:34.077Z,32.50
2022-07-31T13:21:02.148Z,32.40
2022-07-31T13:23:29.141Z,32.60
2022-07-31T13:25:57.341Z,33.00
2022-07-31T13:28:24.363Z,33.40
2022-07-31T13:30:55.040Z,33.40
2022-07-31T13:33:22.371Z,32.90
2022-07-31T13:35:49.437Z,32.60
2022-07-31T13:38:17.532Z,32.10
2022-07-31T13:41:02.934Z,31.80
2022-07-31T13:43:30.106Z,31.70
2022-07-31T13:45:57.094Z,31.60
2022-07-31T13:48:24.260Z,31.40
2022-07-31T13:50:51.249Z,31.10
2022-07-31T13:53:18.840Z,31.00
2022-07-31T13:55:49.947Z,31.20
2022-07-31T13:58:17.932Z,31.70
2022-07-31T14:00:44.951Z,32.00
2022-07-31T14:03:13.056Z,32.10
2022-07-31T14:05:45.564Z,32.00
2022-07-31T14:08:32.661Z,31.80
2022-07-31T14:11:02.185Z,31.80
2022-07-31T14:13:29.352Z,31.80
2022-07-31T14:15:56.882Z,31.90
2022-07-31T14:18:24.225Z,32.00
2022-07-31T14:20:52.465Z,31.90
2022-07-31T14:23:20.983Z,32.10
2022-07-31T14:26:03.153Z,32.60
2022-07-31T14:28:30.391Z,33.10
2022-07-31T14:30:57.610Z,33.50
2022-07-31T14:33:24.682Z,33.30
2022-07-31T14:35:54.596Z,32.90
2022-07-31T14:38:27.226Z,32.40
2022-07-31T14:40:55.056Z,31.90
2022-07-31T14:43:22.039Z,31.40
2022-07-31T14:45:51.606Z,31.20
2022-07-31T14:48:19.198Z,31.00
2022-07-31T14:50:46.173Z,30.80
2022-07-31T14:53:13.273Z,30.70
2022-07-31T14:55:41.609Z,30.60
2022-07-31T14:58:08.681Z,30.50
2022-07-31T15:00:35.706Z,30.40
2022-07-31T15:03:02.854Z,30.40
2022-07-31T15:06:38.298Z,30.50
2022-07-31T15:08:16.816Z,30.50
2022-07-31T15:10:43.815Z,30.90
2022-07-31T15:13:11.061Z,31.40
2022-07-31T15:15:38.069Z,31.80
2022-07-31T15:18:05.461Z,32.10
2022-07-31T15:20:35.818Z,32.20
2022-07-31T15:23:03.772Z,32.40
2022-07-31T15:25:30.893Z,32.60
2022-07-31T15:27:57.935Z,32.50
2022-07-31T15:30:24.962Z,32.10
2022-07-31T15:32:52.928Z,31.70
2022-07-31T15:35:20.515Z,31.30
2022-07-31T15:37:49.547Z,31.20
2022-07-31T15:40:17.781Z,31.10
2022-07-31T15:42:46.300Z,31.10
2022-07-31T15:45:16.281Z,31.10
2022-07-31T15:47:44.846Z,31.30
2022-07-31T15:50:21.590Z,31.20
2022-07-31T15:52:49.966Z,30.90
2022-07-31T15:55:18.507Z,30.60
2022-07-31T15:57:45.785Z,30.20
2022-07-31T16:00:14.317Z,30.00
2022-07-31T16:02:42.705Z,29.90
2022-07-31T16:05:17.255Z,29.80
2022-07-31T16:08:30.040Z,30.00
2022-07-31T16:10:36.072Z,30.10
2022-07-31T16:13:04.165Z,30.00
2022-07-31T16:15:32.181Z,29.80
2022-07-31T16:17:59.518Z,29.70
2022-07-31T16:20:27.204Z,29.60
2022-07-31T16:23:03.210Z,29.40
2022-07-31T16:25:34.710Z,29.20
2022-07-31T16:28:02.703Z,29.00
2022-07-31T16:30:29.715Z,28.80
2022-07-31T16:32:56.951Z,28.60
2022-07-31T16:35:26.416Z,28.50
2022-07-31T16:37:54.190Z,28.40
2022-07-31T16:40:30.445Z,28.20
2022-07-31T16:43:50.020Z,28.00
2022-07-31T16:45:51.454Z,28.00
2022-07-31T16:48:19.313Z,28.00
2022-07-31T16:50:53.619Z,27.90
2022-07-31T16:54:11.013Z,28.00
2022-07-31T16:56:13.892Z,28.00
2022-07-31T16:58:41.657Z,28.10
2022-07-31T17:01:57.218Z,28.20
2022-07-31T17:04:00.262Z,28.30
2022-07-31T17:06:36.481Z,28.30
2022-07-31T17:09:16.019Z,28.40
2022-07-31T17:11:53.064Z,28.40
2022-07-31T17:14:22.411Z,28.40
2022-07-31T17:16:50.843Z,28.40
2022-07-31T17:19:41.359Z,28.40
2022-07-31T17:22:07.962Z,28.40
2022-07-31T17:24:37.377Z,28.50
2022-07-31T17:27:07.698Z,28.40
2022-07-31T17:29:38.294Z,28.30
2022-07-31T17:32:05.876Z,28.30
2022-07-31T17:34:33.460Z,28.30
2022-07-31T17:37:00.482Z,28.20
2022-07-31T17:39:30.820Z,28.40
2022-07-31T17:41:59.129Z,28.40
2022-07-31T17:44:28.629Z,28.30
2022-07-31T17:46:58.048Z,28.20
2022-07-31T17:49:25.737Z,28.00
2022-07-31T17:51:58.868Z,27.80
2022-07-31T17:54:27.523Z,27.70
2022-07-31T17:56:54.674Z,27.50
2022-07-31T17:59:23.197Z,27.30
2022-07-31T18:01:52.359Z,27.20
2022-07-31T18:04:21.491Z,27.10
2022-07-31T18:06:54.490Z,27.10
2022-07-31T18:09:23.740Z,27.10
2022-07-31T18:11:52.320Z,27.00
2022-07-31T18:14:20.250Z,27.00
2022-07-31T18:16:47.917Z,26.90
2022-07-31T18:19:15.190Z,26.80
2022-07-31T18:21:42.424Z,26.90
2022-07-31T18:24:09.588Z,26.80
2022-07-31T18:26:37.520Z,26.80
2022-07-31T18:29:05.541Z,26.70
2022-07-31T18:31:34.261Z,26.60
2022-07-31T18:34:04.406Z,26.60
2022-07-31T18:36:32.737Z,26.50
2022-07-31T18:38:59.992Z,26.50
2022-07-31T18:41:27.668Z,26.50
2022-07-31T18:43:55.020Z,26.40
2022-07-31T18:46:23.866Z,26.40
2022-07-31T18:48:55.857Z,26.30
2022-07-31T18:51:24.607Z,26.20
2022-07-31T18:53:54.349Z,26.10
2022-07-31T18:56:22.931Z,25.90
2022-07-31T18:58:49.948Z,25.80
2022-07-31T19:01:17.078Z,25.70
2022-07-31T19:03:44.145Z,25.60
2022-07-31T19:06:11.190Z,25.50
2022-07-31T19:08:38.229Z,25.40
2022-07-31T19:11:05.352Z,25.20
2022-07-31T19:13:32.740Z,25.20
2022-07-31T19:15:59.922Z,25.10
2022-07-31T19:18:28.717Z,25.00
2022-07-31T19:21:18.996Z,24.90
2022-07-31T19:23:44.521Z,24.90
2022-07-31T19:26:11.962Z,24.70
2022-07-31T19:28:43.499Z,24.60
2022-07-31T19:31:11.733Z,24.60
2022-07-31T19:33:38.932Z,24.50
2022-07-31T19:36:06.475Z,24.40
2022-07-31T19:38:35.974Z,24.30
2022-07-31T19:41:03.620Z,24.20
2022-07-31T19:43:31.211Z,24.20
2022-07-31T19:46:09.702Z,24.00
2022-07-31T19:48:40.833Z,24.00
2022-07-31T19:51:08.176Z,23.80
2022-07-31T19:53:35.359Z,23.70
2022-07-31T19:56:05.946Z,23.70
2022-07-31T19:58:37.232Z,23.50
2022-07-31T20:01:05.657Z,23.50
2022-07-31T20:03:33.008Z,23.40
2022-07-31T20:06:00.731Z,23.30
2022-07-31T20:08:29.650Z,23.20
2022-07-31T20:11:04.201Z,23.10
2022-07-31T20:13:35.465Z,23.10
2022-07-31T20:16:02.730Z,23.00
2022-07-31T20:18:30.753Z,23.00
2022-07-31T20:21:03.798Z,23.00
2022-07-31T20:23:31.514Z,22.90
2022-07-31T20:25:59.163Z,22.80
2022-07-31T20:28:27.267Z,22.60
2022-07-31T20:30:54.677Z,22.50
2022-07-31T20:33:21.787Z,22.50
2022-07-31T20:35:50.598Z,22.50
2022-07-31T20:38:22.398Z,22.50
2022-07-31T20:40:54.643Z,22.50
2022-07-31T20:43:27.549Z,22.40
2022-07-31T20:46:00.099Z,22.40
2022-07-31T20:48:35.038Z,22.40
2022-07-31T20:51:04.300Z,22.50
2022-07-31T20:53:32.720Z,22.50
2022-07-31T20:55:59.939Z,22.60
2022-07-31T20:58:28.627Z,22.60
2022-07-31T21:00:55.927Z,22.60
2022-07-31T21:03:23.180Z,22.60
2022-07-31T21:05:50.584Z,22.60
2022-07-31T21:08:18.356Z,22.60
2022-07-31T21:10:45.523Z,22.70
2022-07-31T21:13:13.168Z,22.80
2022-07-31T21:15:44.845Z,22.70
2022-07-31T21:18:17.118Z,22.70
2022-07-31T21:20:52.246Z,22.70
2022-07-31T21:23:24.816Z,22.70
2022-07-31T21:25:57.353Z,22.60
2022-07-31T21:28:26.161Z,22.60
2022-07-31T21:30:56.083Z,22.60
2022-07-31T21:33:27.559Z,22.50
2022-07-31T21:35:55.435Z,22.50
2022-07-31T21:38:22.767Z,22.50
2022-07-31T21:40:51.059Z,22.50
2022-07-31T21:43:22.147Z,22.50
2022-07-31T21:45:57.607Z,22.50
2022-07-31T21:48:30.297Z,22.50
2022-07-31T21:50:58.520Z,22.40
2022-07-31T21:53:25.894Z,22.40
2022-07-31T21:55:52.967Z,22.40
2022-07-31T21:58:20.543Z,22.40
2022-07-31T22:00:47.704Z,22.40
2022-07-31T22:03:15.691Z,22.30
2022-07-31T22:06:01.663Z,22.20
2022-07-31T22:08:28.744Z,22.30
2022-07-31T22:10:56.859Z,22.40
2022-07-31T22:13:23.957Z,22.40
2022-07-31T22:16:00.068Z,22.40
2022-07-31T22:18:33.154Z,22.40
2022-07-31T22:21:01.959Z,22.50
2022-07-31T22:23:29.833Z,22.50
2022-07-31T22:25:57.506Z,22.50
2022-07-31T22:28:27.013Z,22.50
2022-07-31T22:30:55.317Z,22.40
2022-07-31T22:33:23.207Z,22.40
2022-07-31T22:35:58.515Z,22.40
2022-07-31T22:38:28.341Z,22.30
2022-07-31T22:40:55.436Z,22.30
2022-07-31T22:44:10.556Z,22.20
2022-07-31T22:46:12.385Z,22.10
2022-07-31T22:48:41.019Z,22.00
2022-07-31T22:51:10.822Z,21.90
2022-07-31T22:53:42.749Z,21.90
2022-07-31T22:56:09.766Z,21.80
2022-07-31T22:58:36.858Z,21.80
2022-07-31T23:01:04.409Z,21.70
2022-07-31T23:03:31.511Z,21.60
2022-07-31T23:06:02.397Z,21.60
2022-07-31T23:08:45.530Z,21.50
2022-07-31T23:11:12.788Z,21.50
2022-07-31T23:13:39.890Z,21.50
2022-07-31T23:16:07.001Z,21.40
2022-07-31T23:18:34.035Z,21.40
2022-07-31T23:21:01.194Z,21.40
2022-07-31T23:23:28.677Z,21.40
2022-07-31T23:25:55.803Z,21.40
2022-07-31T23:28:23.617Z,21.40
2022-07-31T23:30:50.618Z,21.40
2022-07-31T23:33:18.674Z,21.40
2022-07-31T23:35:45.672Z,21.40
2022-07-31T23:38:12.669Z,21.40
2022-07-31T23:40:39.775Z,21.40
2022-07-31T23:43:06.862Z,21.40
2022-07-31T23:45:36.041Z,21.40
2022-07-31T23:48:04.102Z,21.40
2022-07-31T23:50:33.010Z,21.30
2022-07-31T23:53:00.087Z,21.30
2022-07-31T23:55:27.184Z,21.20
2022-07-31T23:57:54.426Z,21.10
